aviador You're here:

KAKH Decoded Metar

GASTONIA in NC, USA
Report Time2018-07-18 09:54:00
UTC Time2018-07-18 10:40:01
Flight Rules vfr VFR
WindCalm
Visibility9999 m
Phenomena:N/A
Clouds:N/A
Expected CloudBase > 400 ft AGL from Temp-Dew spread
CeilingNone
Temp22°C (ISA +9)
Dew Point21°C (94% RH)
QNH1014 hPa
Density Alt2,093 ft
Elevation797 ft
Report Wrong Elevation
Raw Report
KAKH 180954Z AUTO 00000KT 10SM CLR 22/21 A2994 RMK AO2 SLP130
T02220206=

Extra information for KAKH:More info

Metar Taf Metar & Taf Last 4 Metars F.Rules Stats Wind Profile Meteogram Temp Stats Airport Information Weather charts Add Link Nearby VenuesMetar ALERT Operation Metar Decoded Social comments

AIRNAV info for KAKH